sensor_id;sensor_type;location;lat;lon;timestamp;P1;durP1;ratioP1;P2;durP2;ratioP2
9689;SDS011;4884;42.614;23.340;2023-02-28T00:00:11;26.33;;;15.00;;
9689;SDS011;4884;42.614;23.340;2023-02-28T00:02:38;22.47;;;13.53;;
9689;SDS011;4884;42.614;23.340;2023-02-28T00:05:05;29.43;;;15.23;;
9689;SDS011;4884;42.614;23.340;2023-02-28T00:07:31;22.83;;;15.27;;
9689;SDS011;4884;42.614;23.340;2023-02-28T00:09:57;26.83;;;16.07;;
9689;SDS011;4884;42.614;23.340;2023-02-28T00:12:23;27.50;;;15.73;;
9689;SDS011;4884;42.614;23.340;2023-02-28T00:14:49;21.37;;;13.33;;
9689;SDS011;4884;42.614;23.340;2023-02-28T00:17:14;27.87;;;16.47;;
9689;SDS011;4884;42.614;23.340;2023-02-28T00:19:39;23.80;;;14.37;;
9689;SDS011;4884;42.614;23.340;2023-02-28T00:22:05;22.60;;;13.93;;
9689;SDS011;4884;42.614;23.340;2023-02-28T00:24:30;22.63;;;14.77;;
9689;SDS011;4884;42.614;23.340;2023-02-28T00:26:56;24.57;;;14.67;;
9689;SDS011;4884;42.614;23.340;2023-02-28T00:29:21;21.33;;;13.07;;
9689;SDS011;4884;42.614;23.340;2023-02-28T00:31:46;21.90;;;13.57;;
9689;SDS011;4884;42.614;23.340;2023-02-28T00:34:12;24.07;;;16.07;;
9689;SDS011;4884;42.614;23.340;2023-02-28T00:36:37;29.63;;;15.80;;
9689;SDS011;4884;42.614;23.340;2023-02-28T00:39:03;23.27;;;14.43;;
9689;SDS011;4884;42.614;23.340;2023-02-28T00:41:28;20.87;;;13.20;;
9689;SDS011;4884;42.614;23.340;2023-02-28T00:43:53;23.07;;;14.93;;
9689;SDS011;4884;42.614;23.340;2023-02-28T00:46:19;24.27;;;14.17;;
9689;SDS011;4884;42.614;23.340;2023-02-28T00:48:44;22.97;;;14.27;;
9689;SDS011;4884;42.614;23.340;2023-02-28T00:51:10;25.87;;;17.30;;
9689;SDS011;4884;42.614;23.340;2023-02-28T00:53:35;33.07;;;20.60;;
9689;SDS011;4884;42.614;23.340;2023-02-28T00:56:00;22.50;;;14.03;;
9689;SDS011;4884;42.614;23.340;2023-02-28T00:58:27;21.77;;;12.70;;
9689;SDS011;4884;42.614;23.340;2023-02-28T01:00:53;15.30;;;11.60;;
9689;SDS011;4884;42.614;23.340;2023-02-28T01:03:19;13.87;;;10.90;;
9689;SDS011;4884;42.614;23.340;2023-02-28T01:05:45;13.33;;;9.40;;
9689;SDS011;4884;42.614;23.340;2023-02-28T01:08:11;14.90;;;10.27;;
9689;SDS011;4884;42.614;23.340;2023-02-28T01:10:36;12.50;;;10.10;;
9689;SDS011;4884;42.614;23.340;2023-02-28T01:13:03;15.37;;;11.47;;
9689;SDS011;4884;42.614;23.340;2023-02-28T01:15:28;17.47;;;11.87;;
9689;SDS011;4884;42.614;23.340;2023-02-28T01:17:54;18.73;;;13.47;;
9689;SDS011;4884;42.614;23.340;2023-02-28T01:20:19;22.73;;;14.17;;
9689;SDS011;4884;42.614;23.340;2023-02-28T01:22:45;20.23;;;14.30;;
9689;SDS011;4884;42.614;23.340;2023-02-28T01:25:11;17.87;;;13.03;;
9689;SDS011;4884;42.614;23.340;2023-02-28T01:27:37;18.30;;;13.60;;
9689;SDS011;4884;42.614;23.340;2023-02-28T01:30:04;18.50;;;13.63;;
9689;SDS011;4884;42.614;23.340;2023-02-28T01:32:30;22.37;;;12.17;;
9689;SDS011;4884;42.614;23.340;2023-02-28T01:34:56;21.90;;;14.13;;
9689;SDS011;4884;42.614;23.340;2023-02-28T01:37:21;19.50;;;13.10;;
9689;SDS011;4884;42.614;23.340;2023-02-28T01:39:47;21.70;;;15.03;;
9689;SDS011;4884;42.614;23.340;2023-02-28T01:42:12;19.90;;;14.70;;
9689;SDS011;4884;42.614;23.340;2023-02-28T01:47:22;28.40;;;16.87;;
9689;SDS011;4884;42.614;23.340;2023-02-28T01:49:48;30.63;;;17.43;;
9689;SDS011;4884;42.614;23.340;2023-02-28T01:52:14;26.87;;;17.27;;
9689;SDS011;4884;42.614;23.340;2023-02-28T01:54:43;32.33;;;20.03;;
9689;SDS011;4884;42.614;23.340;2023-02-28T01:57:14;35.27;;;18.37;;
9689;SDS011;4884;42.614;23.340;2023-02-28T01:59:43;32.67;;;18.80;;
9689;SDS011;4884;42.614;23.340;2023-02-28T02:02:13;31.80;;;18.67;;
9689;SDS011;4884;42.614;23.340;2023-02-28T02:04:42;32.20;;;19.10;;
9689;SDS011;4884;42.614;23.340;2023-02-28T02:07:13;29.33;;;19.07;;
9689;SDS011;4884;42.614;23.340;2023-02-28T02:09:39;33.20;;;18.50;;
9689;SDS011;4884;42.614;23.340;2023-02-28T02:12:09;98.60;;;22.60;;
9689;SDS011;4884;42.614;23.340;2023-02-28T02:15:08;80.83;;;22.17;;
9689;SDS011;4884;42.614;23.340;2023-02-28T02:17:39;52.37;;;21.90;;
9689;SDS011;4884;42.614;23.340;2023-02-28T02:36:35;40.93;;;19.73;;
9689;SDS011;4884;42.614;23.340;2023-02-28T02:41:56;110.10;;;21.13;;
9689;SDS011;4884;42.614;23.340;2023-02-28T02:44:30;62.83;;;21.30;;
9689;SDS011;4884;42.614;23.340;2023-02-28T02:47:09;59.43;;;19.47;;
9689;SDS011;4884;42.614;23.340;2023-02-28T02:49:38;43.07;;;22.90;;
9689;SDS011;4884;42.614;23.340;2023-02-28T02:52:06;34.23;;;20.07;;
9689;SDS011;4884;42.614;23.340;2023-02-28T02:54:40;40.60;;;21.27;;
9689;SDS011;4884;42.614;23.340;2023-02-28T02:57:08;31.87;;;18.23;;
9689;SDS011;4884;42.614;23.340;2023-02-28T02:59:38;17.33;;;12.63;;
9689;SDS011;4884;42.614;23.340;2023-02-28T03:02:05;28.70;;;17.13;;
9689;SDS011;4884;42.614;23.340;2023-02-28T03:04:34;33.27;;;20.47;;
9689;SDS011;4884;42.614;23.340;2023-02-28T03:07:03;44.77;;;20.67;;
9689;SDS011;4884;42.614;23.340;2023-02-28T03:09:29;39.53;;;20.33;;
9689;SDS011;4884;42.614;23.340;2023-02-28T03:11:58;33.80;;;19.43;;
9689;SDS011;4884;42.614;23.340;2023-02-28T03:20:27;33.80;;;18.30;;
9689;SDS011;4884;42.614;23.340;2023-02-28T03:23:07;40.20;;;19.83;;
9689;SDS011;4884;42.614;23.340;2023-02-28T03:26:16;38.33;;;16.90;;
9689;SDS011;4884;42.614;23.340;2023-02-28T03:29:05;29.17;;;13.90;;
9689;SDS011;4884;42.614;23.340;2023-02-28T03:31:44;26.63;;;13.40;;
9689;SDS011;4884;42.614;23.340;2023-02-28T03:34:17;28.20;;;14.60;;
9689;SDS011;4884;42.614;23.340;2023-02-28T03:36:48;27.20;;;14.90;;
9689;SDS011;4884;42.614;23.340;2023-02-28T03:39:36;80.70;;;16.73;;
9689;SDS011;4884;42.614;23.340;2023-02-28T03:42:19;27.63;;;14.43;;
9689;SDS011;4884;42.614;23.340;2023-02-28T03:44:50;25.67;;;13.93;;
9689;SDS011;4884;42.614;23.340;2023-02-28T03:47:21;32.37;;;14.83;;
9689;SDS011;4884;42.614;23.340;2023-02-28T03:49:51;63.90;;;15.10;;
9689;SDS011;4884;42.614;23.340;2023-02-28T03:52:18;56.17;;;14.30;;
9689;SDS011;4884;42.614;23.340;2023-02-28T03:54:51;62.30;;;13.33;;
9689;SDS011;4884;42.614;23.340;2023-02-28T03:57:28;38.07;;;11.70;;
9689;SDS011;4884;42.614;23.340;2023-02-28T04:00:00;50.40;;;13.50;;
9689;SDS011;4884;42.614;23.340;2023-02-28T04:02:31;50.80;;;13.37;;
9689;SDS011;4884;42.614;23.340;2023-02-28T04:04:56;56.87;;;13.40;;
9689;SDS011;4884;42.614;23.340;2023-02-28T04:07:22;52.47;;;14.33;;
9689;SDS011;4884;42.614;23.340;2023-02-28T04:09:47;25.23;;;13.93;;
9689;SDS011;4884;42.614;23.340;2023-02-28T04:12:12;66.70;;;16.33;;
9689;SDS011;4884;42.614;23.340;2023-02-28T04:14:38;180.70;;;23.37;;
9689;SDS011;4884;42.614;23.340;2023-02-28T04:17:03;139.03;;;20.20;;
9689;SDS011;4884;42.614;23.340;2023-02-28T04:19:29;77.60;;;17.73;;
9689;SDS011;4884;42.614;23.340;2023-02-28T04:21:54;111.13;;;19.87;;
9689;SDS011;4884;42.614;23.340;2023-02-28T04:24:23;80.10;;;15.70;;
9689;SDS011;4884;42.614;23.340;2023-02-28T04:26:54;95.57;;;18.00;;
9689;SDS011;4884;42.614;23.340;2023-02-28T04:29:25;92.07;;;19.07;;
9689;SDS011;4884;42.614;23.340;2023-02-28T04:31:55;143.23;;;22.47;;
9689;SDS011;4884;42.614;23.340;2023-02-28T04:34:24;149.23;;;19.00;;
9689;SDS011;4884;42.614;23.340;2023-02-28T04:36:53;122.30;;;19.30;;
9689;SDS011;4884;42.614;23.340;2023-02-28T04:39:20;107.57;;;20.20;;
9689;SDS011;4884;42.614;23.340;2023-02-28T04:41:46;58.77;;;16.40;;
9689;SDS011;4884;42.614;23.340;2023-02-28T04:44:12;114.60;;;20.30;;
9689;SDS011;4884;42.614;23.340;2023-02-28T04:46:37;107.53;;;21.03;;
9689;SDS011;4884;42.614;23.340;2023-02-28T04:49:03;69.80;;;19.00;;
9689;SDS011;4884;42.614;23.340;2023-02-28T04:51:28;68.73;;;20.07;;
9689;SDS011;4884;42.614;23.340;2023-02-28T04:53:54;82.53;;;17.67;;
9689;SDS011;4884;42.614;23.340;2023-02-28T04:56:20;151.63;;;22.97;;
9689;SDS011;4884;42.614;23.340;2023-02-28T04:58:46;198.30;;;25.97;;
9689;SDS011;4884;42.614;23.340;2023-02-28T05:01:25;46.03;;;18.10;;
9689;SDS011;4884;42.614;23.340;2023-02-28T05:03:52;71.43;;;15.67;;
9689;SDS011;4884;42.614;23.340;2023-02-28T05:06:18;120.67;;;19.33;;
9689;SDS011;4884;42.614;23.340;2023-02-28T05:08:45;121.90;;;20.10;;
9689;SDS011;4884;42.614;23.340;2023-02-28T05:11:15;208.90;;;24.40;;
9689;SDS011;4884;42.614;23.340;2023-02-28T05:14:01;152.37;;;20.63;;
9689;SDS011;4884;42.614;23.340;2023-02-28T05:16:28;152.50;;;21.47;;
9689;SDS011;4884;42.614;23.340;2023-02-28T05:18:53;40.90;;;12.97;;
9689;SDS011;4884;42.614;23.340;2023-02-28T05:23:58;91.60;;;17.73;;
9689;SDS011;4884;42.614;23.340;2023-02-28T05:26:26;69.73;;;15.93;;
9689;SDS011;4884;42.614;23.340;2023-02-28T05:28:53;67.67;;;15.50;;
9689;SDS011;4884;42.614;23.340;2023-02-28T05:31:18;43.17;;;14.17;;
9689;SDS011;4884;42.614;23.340;2023-02-28T05:33:44;85.43;;;16.50;;
9689;SDS011;4884;42.614;23.340;2023-02-28T05:36:09;76.33;;;15.83;;
9689;SDS011;4884;42.614;23.340;2023-02-28T05:38:35;21.13;;;12.27;;
9689;SDS011;4884;42.614;23.340;2023-02-28T05:41:04;82.47;;;18.33;;
9689;SDS011;4884;42.614;23.340;2023-02-28T05:43:30;99.50;;;17.70;;
9689;SDS011;4884;42.614;23.340;2023-02-28T05:45:55;30.43;;;13.33;;
9689;SDS011;4884;42.614;23.340;2023-02-28T05:48:21;96.10;;;16.87;;
9689;SDS011;4884;42.614;23.340;2023-02-28T05:50:46;51.30;;;16.00;;
9689;SDS011;4884;42.614;23.340;2023-02-28T05:53:11;87.13;;;17.43;;
9689;SDS011;4884;42.614;23.340;2023-02-28T05:55:37;50.87;;;15.80;;
9689;SDS011;4884;42.614;23.340;2023-02-28T05:58:02;72.60;;;16.30;;
9689;SDS011;4884;42.614;23.340;2023-02-28T06:00:28;114.63;;;19.80;;
9689;SDS011;4884;42.614;23.340;2023-02-28T06:02:53;37.80;;;13.47;;
9689;SDS011;4884;42.614;23.340;2023-02-28T06:05:21;82.87;;;17.23;;
9689;SDS011;4884;42.614;23.340;2023-02-28T06:07:46;51.57;;;15.77;;
9689;SDS011;4884;42.614;23.340;2023-02-28T06:10:12;180.57;;;23.93;;
9689;SDS011;4884;42.614;23.340;2023-02-28T06:12:38;262.33;;;29.07;;
9689;SDS011;4884;42.614;23.340;2023-02-28T06:15:04;125.97;;;21.77;;
9689;SDS011;4884;42.614;23.340;2023-02-28T06:17:29;200.77;;;29.23;;
9689;SDS011;4884;42.614;23.340;2023-02-28T06:19:55;256.87;;;32.03;;
9689;SDS011;4884;42.614;23.340;2023-02-28T06:22:20;48.87;;;21.47;;
9689;SDS011;4884;42.614;23.340;2023-02-28T06:24:46;214.37;;;31.37;;
9689;SDS011;4884;42.614;23.340;2023-02-28T06:27:11;56.87;;;23.23;;
9689;SDS011;4884;42.614;23.340;2023-02-28T06:29:36;37.27;;;20.63;;
9689;SDS011;4884;42.614;23.340;2023-02-28T06:32:04;280.00;;;32.00;;
9689;SDS011;4884;42.614;23.340;2023-02-28T06:34:30;203.07;;;26.53;;
9689;SDS011;4884;42.614;23.340;2023-02-28T06:36:55;118.33;;;22.83;;
9689;SDS011;4884;42.614;23.340;2023-02-28T06:39:21;79.37;;;19.17;;
9689;SDS011;4884;42.614;23.340;2023-02-28T06:41:46;61.90;;;21.33;;
9689;SDS011;4884;42.614;23.340;2023-02-28T06:44:13;39.20;;;18.83;;
9689;SDS011;4884;42.614;23.340;2023-02-28T06:46:40;46.33;;;18.83;;
9689;SDS011;4884;42.614;23.340;2023-02-28T06:49:06;32.13;;;18.60;;
9689;SDS011;4884;42.614;23.340;2023-02-28T06:51:36;33.20;;;17.87;;
9689;SDS011;4884;42.614;23.340;2023-02-28T06:54:02;37.03;;;18.77;;
9689;SDS011;4884;42.614;23.340;2023-02-28T06:56:28;26.77;;;17.47;;
9689;SDS011;4884;42.614;23.340;2023-02-28T06:58:53;25.80;;;19.37;;
9689;SDS011;4884;42.614;23.340;2023-02-28T07:01:19;31.43;;;19.03;;
9689;SDS011;4884;42.614;23.340;2023-02-28T07:03:44;30.30;;;17.43;;
9689;SDS011;4884;42.614;23.340;2023-02-28T07:06:10;29.17;;;18.33;;
9689;SDS011;4884;42.614;23.340;2023-02-28T07:08:36;25.57;;;18.13;;
9689;SDS011;4884;42.614;23.340;2023-02-28T07:11:02;34.23;;;21.23;;
9689;SDS011;4884;42.614;23.340;2023-02-28T07:13:27;31.80;;;19.17;;
9689;SDS011;4884;42.614;23.340;2023-02-28T07:15:59;36.03;;;22.40;;
9689;SDS011;4884;42.614;23.340;2023-02-28T07:18:26;36.60;;;23.20;;
9689;SDS011;4884;42.614;23.340;2023-02-28T07:20:52;36.03;;;22.87;;
9689;SDS011;4884;42.614;23.340;2023-02-28T07:23:18;35.67;;;22.40;;
9689;SDS011;4884;42.614;23.340;2023-02-28T07:25:44;41.30;;;22.33;;
9689;SDS011;4884;42.614;23.340;2023-02-28T07:28:10;33.73;;;22.13;;
9689;SDS011;4884;42.614;23.340;2023-02-28T07:30:36;36.90;;;22.00;;
9689;SDS011;4884;42.614;23.340;2023-02-28T07:33:02;33.63;;;20.50;;
9689;SDS011;4884;42.614;23.340;2023-02-28T07:35:27;40.23;;;22.87;;
9689;SDS011;4884;42.614;23.340;2023-02-28T07:37:52;35.03;;;21.90;;
9689;SDS011;4884;42.614;23.340;2023-02-28T07:40:18;32.13;;;22.07;;
9689;SDS011;4884;42.614;23.340;2023-02-28T07:42:43;27.27;;;18.97;;
9689;SDS011;4884;42.614;23.340;2023-02-28T07:45:10;28.80;;;20.30;;
9689;SDS011;4884;42.614;23.340;2023-02-28T07:47:37;29.13;;;19.03;;
9689;SDS011;4884;42.614;23.340;2023-02-28T07:50:03;30.97;;;21.03;;
9689;SDS011;4884;42.614;23.340;2023-02-28T07:52:28;30.20;;;19.37;;
9689;SDS011;4884;42.614;23.340;2023-02-28T07:54:54;31.73;;;17.97;;
9689;SDS011;4884;42.614;23.340;2023-02-28T07:57:19;31.13;;;18.00;;
9689;SDS011;4884;42.614;23.340;2023-02-28T07:59:44;32.27;;;20.03;;
9689;SDS011;4884;42.614;23.340;2023-02-28T08:02:12;31.13;;;18.10;;
9689;SDS011;4884;42.614;23.340;2023-02-28T08:04:38;31.70;;;19.20;;
9689;SDS011;4884;42.614;23.340;2023-02-28T08:07:04;33.30;;;19.50;;
9689;SDS011;4884;42.614;23.340;2023-02-28T08:09:29;33.87;;;18.70;;
9689;SDS011;4884;42.614;23.340;2023-02-28T08:11:55;28.77;;;18.17;;
9689;SDS011;4884;42.614;23.340;2023-02-28T08:14:20;33.10;;;19.07;;
9689;SDS011;4884;42.614;23.340;2023-02-28T08:16:46;33.87;;;19.80;;
9689;SDS011;4884;42.614;23.340;2023-02-28T08:19:11;29.90;;;18.13;;
9689;SDS011;4884;42.614;23.340;2023-02-28T08:21:36;29.57;;;18.50;;
9689;SDS011;4884;42.614;23.340;2023-02-28T08:24:02;32.07;;;19.80;;
9689;SDS011;4884;42.614;23.340;2023-02-28T08:26:27;33.97;;;19.53;;
9689;SDS011;4884;42.614;23.340;2023-02-28T08:28:52;32.40;;;20.53;;
9689;SDS011;4884;42.614;23.340;2023-02-28T08:31:18;32.50;;;19.13;;
9689;SDS011;4884;42.614;23.340;2023-02-28T08:33:44;28.27;;;18.40;;
9689;SDS011;4884;42.614;23.340;2023-02-28T08:36:10;20.97;;;14.03;;
9689;SDS011;4884;42.614;23.340;2023-02-28T08:38:35;23.23;;;13.50;;
9689;SDS011;4884;42.614;23.340;2023-02-28T08:41:03;24.37;;;12.87;;
9689;SDS011;4884;42.614;23.340;2023-02-28T08:43:34;22.80;;;12.07;;
9689;SDS011;4884;42.614;23.340;2023-02-28T08:45:59;19.53;;;12.07;;
9689;SDS011;4884;42.614;23.340;2023-02-28T08:48:26;24.63;;;12.73;;
9689;SDS011;4884;42.614;23.340;2023-02-28T08:50:59;18.93;;;12.13;;
9689;SDS011;4884;42.614;23.340;2023-02-28T08:53:29;18.53;;;12.07;;
9689;SDS011;4884;42.614;23.340;2023-02-28T08:55:56;17.97;;;11.00;;
9689;SDS011;4884;42.614;23.340;2023-02-28T08:58:22;24.40;;;12.27;;
9689;SDS011;4884;42.614;23.340;2023-02-28T09:00:47;15.20;;;10.90;;
9689;SDS011;4884;42.614;23.340;2023-02-28T09:03:13;22.70;;;11.97;;
9689;SDS011;4884;42.614;23.340;2023-02-28T09:05:38;23.10;;;11.47;;
9689;SDS011;4884;42.614;23.340;2023-02-28T09:08:03;21.27;;;12.50;;
9689;SDS011;4884;42.614;23.340;2023-02-28T09:10:29;19.27;;;11.03;;
9689;SDS011;4884;42.614;23.340;2023-02-28T09:12:54;18.60;;;10.70;;
9689;SDS011;4884;42.614;23.340;2023-02-28T09:15:20;18.27;;;10.13;;
9689;SDS011;4884;42.614;23.340;2023-02-28T09:17:45;17.30;;;12.07;;
9689;SDS011;4884;42.614;23.340;2023-02-28T09:20:11;21.37;;;11.53;;
9689;SDS011;4884;42.614;23.340;2023-02-28T09:22:36;22.77;;;11.57;;
9689;SDS011;4884;42.614;23.340;2023-02-28T09:25:02;23.53;;;13.70;;
9689;SDS011;4884;42.614;23.340;2023-02-28T09:27:27;25.70;;;12.87;;
9689;SDS011;4884;42.614;23.340;2023-02-28T09:29:53;29.20;;;13.50;;
9689;SDS011;4884;42.614;23.340;2023-02-28T09:32:18;19.23;;;11.60;;
9689;SDS011;4884;42.614;23.340;2023-02-28T09:34:44;22.47;;;12.67;;
9689;SDS011;4884;42.614;23.340;2023-02-28T09:37:09;21.30;;;12.67;;
9689;SDS011;4884;42.614;23.340;2023-02-28T09:39:34;21.87;;;12.23;;
9689;SDS011;4884;42.614;23.340;2023-02-28T09:42:00;22.17;;;11.77;;
9689;SDS011;4884;42.614;23.340;2023-02-28T09:44:36;17.73;;;10.40;;
9689;SDS011;4884;42.614;23.340;2023-02-28T09:49:47;18.20;;;10.83;;
9689;SDS011;4884;42.614;23.340;2023-02-28T09:52:20;19.50;;;11.43;;
9689;SDS011;4884;42.614;23.340;2023-02-28T09:54:47;22.97;;;10.97;;
9689;SDS011;4884;42.614;23.340;2023-02-28T10:05:02;22.83;;;11.40;;
9689;SDS011;4884;42.614;23.340;2023-02-28T10:12:56;17.73;;;9.83;;
9689;SDS011;4884;42.614;23.340;2023-02-28T10:15:24;21.00;;;10.20;;
9689;SDS011;4884;42.614;23.340;2023-02-28T10:17:53;25.67;;;11.33;;
9689;SDS011;4884;42.614;23.340;2023-02-28T10:20:20;31.23;;;10.43;;
9689;SDS011;4884;42.614;23.340;2023-02-28T10:22:52;19.83;;;9.63;;
9689;SDS011;4884;42.614;23.340;2023-02-28T10:25:22;20.60;;;9.27;;
9689;SDS011;4884;42.614;23.340;2023-02-28T10:27:49;15.77;;;9.43;;
9689;SDS011;4884;42.614;23.340;2023-02-28T10:30:15;15.73;;;9.70;;
9689;SDS011;4884;42.614;23.340;2023-02-28T10:32:43;16.97;;;9.30;;
9689;SDS011;4884;42.614;23.340;2023-02-28T10:37:49;19.77;;;10.10;;
9689;SDS011;4884;42.614;23.340;2023-02-28T10:42:56;17.80;;;9.77;;
9689;SDS011;4884;42.614;23.340;2023-02-28T10:45:30;19.50;;;10.07;;
9689;SDS011;4884;42.614;23.340;2023-02-28T10:53:16;18.30;;;9.53;;
9689;SDS011;4884;42.614;23.340;2023-02-28T10:55:42;20.23;;;9.87;;
9689;SDS011;4884;42.614;23.340;2023-02-28T10:58:20;19.33;;;10.27;;
9689;SDS011;4884;42.614;23.340;2023-02-28T11:00:47;16.67;;;9.47;;
9689;SDS011;4884;42.614;23.340;2023-02-28T11:03:28;15.73;;;8.03;;
9689;SDS011;4884;42.614;23.340;2023-02-28T11:05:55;15.80;;;8.33;;
9689;SDS011;4884;42.614;23.340;2023-02-28T11:08:21;16.17;;;9.17;;
9689;SDS011;4884;42.614;23.340;2023-02-28T11:10:47;16.93;;;8.53;;
9689;SDS011;4884;42.614;23.340;2023-02-28T11:13:19;20.63;;;8.93;;
9689;SDS011;4884;42.614;23.340;2023-02-28T11:15:54;16.13;;;9.23;;
9689;SDS011;4884;42.614;23.340;2023-02-28T11:20:56;16.63;;;8.47;;
9689;SDS011;4884;42.614;23.340;2023-02-28T11:23:24;14.77;;;9.67;;
9689;SDS011;4884;42.614;23.340;2023-02-28T11:25:51;20.90;;;12.23;;
9689;SDS011;4884;42.614;23.340;2023-02-28T11:31:01;14.47;;;9.70;;
9689;SDS011;4884;42.614;23.340;2023-02-28T11:36:11;24.43;;;11.67;;
9689;SDS011;4884;42.614;23.340;2023-02-28T11:38:41;20.53;;;11.17;;
9689;SDS011;4884;42.614;23.340;2023-02-28T11:46:30;18.70;;;10.87;;
9689;SDS011;4884;42.614;23.340;2023-02-28T11:49:37;15.43;;;10.10;;
9689;SDS011;4884;42.614;23.340;2023-02-28T11:52:20;18.10;;;11.30;;
9689;SDS011;4884;42.614;23.340;2023-02-28T11:57:47;18.30;;;11.20;;
9689;SDS011;4884;42.614;23.340;2023-02-28T12:00:27;20.77;;;10.00;;
9689;SDS011;4884;42.614;23.340;2023-02-28T12:13:38;17.27;;;10.83;;
9689;SDS011;4884;42.614;23.340;2023-02-28T12:19:09;21.13;;;15.07;;
9689;SDS011;4884;42.614;23.340;2023-02-28T12:27:09;19.67;;;12.07;;
9689;SDS011;4884;42.614;23.340;2023-02-28T12:29:40;27.60;;;12.97;;
9689;SDS011;4884;42.614;23.340;2023-02-28T12:32:23;19.77;;;11.50;;
9689;SDS011;4884;42.614;23.340;2023-02-28T12:34:55;21.03;;;11.37;;
9689;SDS011;4884;42.614;23.340;2023-02-28T12:39:58;28.63;;;12.13;;
9689;SDS011;4884;42.614;23.340;2023-02-28T12:42:31;19.33;;;11.03;;
9689;SDS011;4884;42.614;23.340;2023-02-28T12:44:59;18.57;;;10.87;;
9689;SDS011;4884;42.614;23.340;2023-02-28T12:47:26;19.47;;;11.67;;
9689;SDS011;4884;42.614;23.340;2023-02-28T12:49:56;18.60;;;12.00;;
9689;SDS011;4884;42.614;23.340;2023-02-28T12:52:36;23.90;;;12.57;;
9689;SDS011;4884;42.614;23.340;2023-02-28T13:06:45;21.50;;;11.50;;
9689;SDS011;4884;42.614;23.340;2023-02-28T13:09:15;18.03;;;11.73;;
9689;SDS011;4884;42.614;23.340;2023-02-28T13:11:45;20.73;;;11.97;;
9689;SDS011;4884;42.614;23.340;2023-02-28T13:19:32;18.53;;;11.90;;
9689;SDS011;4884;42.614;23.340;2023-02-28T13:21:59;18.87;;;11.47;;
9689;SDS011;4884;42.614;23.340;2023-02-28T13:27:11;18.83;;;11.20;;
9689;SDS011;4884;42.614;23.340;2023-02-28T13:29:49;15.40;;;9.90;;
9689;SDS011;4884;42.614;23.340;2023-02-28T13:32:19;19.77;;;10.23;;
9689;SDS011;4884;42.614;23.340;2023-02-28T13:39:59;16.73;;;9.83;;
9689;SDS011;4884;42.614;23.340;2023-02-28T13:47:43;18.30;;;10.30;;
9689;SDS011;4884;42.614;23.340;2023-02-28T13:50:14;19.33;;;10.23;;
9689;SDS011;4884;42.614;23.340;2023-02-28T13:53:03;17.43;;;9.57;;
9689;SDS011;4884;42.614;23.340;2023-02-28T13:55:42;18.27;;;10.00;;
9689;SDS011;4884;42.614;23.340;2023-02-28T14:01:37;18.30;;;10.60;;
9689;SDS011;4884;42.614;23.340;2023-02-28T14:06:33;17.73;;;10.07;;
9689;SDS011;4884;42.614;23.340;2023-02-28T14:11:27;15.60;;;9.00;;
9689;SDS011;4884;42.614;23.340;2023-02-28T14:13:54;16.33;;;10.27;;
9689;SDS011;4884;42.614;23.340;2023-02-28T14:16:20;19.90;;;9.80;;
9689;SDS011;4884;42.614;23.340;2023-02-28T14:18:55;16.07;;;10.60;;
9689;SDS011;4884;42.614;23.340;2023-02-28T14:21:24;16.17;;;9.80;;
9689;SDS011;4884;42.614;23.340;2023-02-28T14:38:44;24.60;;;14.37;;
9689;SDS011;4884;42.614;23.340;2023-02-28T14:41:20;15.73;;;10.83;;
9689;SDS011;4884;42.614;23.340;2023-02-28T14:43:53;23.40;;;14.23;;
9689;SDS011;4884;42.614;23.340;2023-02-28T14:46:20;31.57;;;15.67;;
9689;SDS011;4884;42.614;23.340;2023-02-28T14:48:47;22.47;;;12.80;;
9689;SDS011;4884;42.614;23.340;2023-02-28T14:51:13;20.53;;;12.67;;
9689;SDS011;4884;42.614;23.340;2023-02-28T14:53:43;21.80;;;13.63;;
9689;SDS011;4884;42.614;23.340;2023-02-28T14:56:18;20.17;;;11.60;;
9689;SDS011;4884;42.614;23.340;2023-02-28T14:58:50;17.83;;;9.00;;
9689;SDS011;4884;42.614;23.340;2023-02-28T15:01:18;19.37;;;9.27;;
9689;SDS011;4884;42.614;23.340;2023-02-28T15:03:46;17.87;;;11.73;;
9689;SDS011;4884;42.614;23.340;2023-02-28T15:06:13;26.30;;;10.10;;
9689;SDS011;4884;42.614;23.340;2023-02-28T15:08:42;33.87;;;15.67;;
9689;SDS011;4884;42.614;23.340;2023-02-28T15:11:08;24.23;;;8.77;;
9689;SDS011;4884;42.614;23.340;2023-02-28T15:16:06;19.00;;;8.13;;
9689;SDS011;4884;42.614;23.340;2023-02-28T15:21:30;18.93;;;8.57;;
9689;SDS011;4884;42.614;23.340;2023-02-28T15:24:16;11.30;;;7.10;;
9689;SDS011;4884;42.614;23.340;2023-02-28T15:26:50;13.13;;;6.77;;
9689;SDS011;4884;42.614;23.340;2023-02-28T15:29:22;10.67;;;6.13;;
9689;SDS011;4884;42.614;23.340;2023-02-28T15:31:50;13.57;;;7.40;;
9689;SDS011;4884;42.614;23.340;2023-02-28T15:34:34;14.40;;;8.37;;
9689;SDS011;4884;42.614;23.340;2023-02-28T15:39:53;13.40;;;8.50;;
9689;SDS011;4884;42.614;23.340;2023-02-28T15:42:20;18.30;;;7.60;;
9689;SDS011;4884;42.614;23.340;2023-02-28T15:44:47;18.60;;;9.03;;
9689;SDS011;4884;42.614;23.340;2023-02-28T15:47:20;13.70;;;7.57;;
9689;SDS011;4884;42.614;23.340;2023-02-28T15:49:51;12.47;;;5.93;;
9689;SDS011;4884;42.614;23.340;2023-02-28T15:52:24;18.00;;;7.10;;
9689;SDS011;4884;42.614;23.340;2023-02-28T15:54:53;16.97;;;7.63;;
9689;SDS011;4884;42.614;23.340;2023-02-28T15:57:20;16.93;;;8.17;;
9689;SDS011;4884;42.614;23.340;2023-02-28T15:59:52;11.50;;;8.00;;
9689;SDS011;4884;42.614;23.340;2023-02-28T16:02:20;13.50;;;8.00;;
9689;SDS011;4884;42.614;23.340;2023-02-28T16:04:58;13.70;;;7.70;;
9689;SDS011;4884;42.614;23.340;2023-02-28T16:07:38;16.60;;;9.77;;
9689;SDS011;4884;42.614;23.340;2023-02-28T16:10:05;13.87;;;8.63;;
9689;SDS011;4884;42.614;23.340;2023-02-28T16:12:32;14.03;;;8.83;;
9689;SDS011;4884;42.614;23.340;2023-02-28T16:15:00;13.50;;;9.13;;
9689;SDS011;4884;42.614;23.340;2023-02-28T16:17:34;25.20;;;14.43;;
9689;SDS011;4884;42.614;23.340;2023-02-28T16:20:01;25.97;;;16.10;;
9689;SDS011;4884;42.614;23.340;2023-02-28T16:22:36;20.50;;;9.97;;
9689;SDS011;4884;42.614;23.340;2023-02-28T16:25:02;12.60;;;8.27;;
9689;SDS011;4884;42.614;23.340;2023-02-28T16:27:33;17.13;;;9.50;;
9689;SDS011;4884;42.614;23.340;2023-02-28T16:30:01;17.87;;;9.10;;
9689;SDS011;4884;42.614;23.340;2023-02-28T16:32:28;14.57;;;9.27;;
9689;SDS011;4884;42.614;23.340;2023-02-28T16:34:53;14.03;;;9.77;;
9689;SDS011;4884;42.614;23.340;2023-02-28T16:37:18;14.77;;;10.03;;
9689;SDS011;4884;42.614;23.340;2023-02-28T16:39:44;13.17;;;9.17;;
9689;SDS011;4884;42.614;23.340;2023-02-28T16:42:13;14.03;;;10.33;;
9689;SDS011;4884;42.614;23.340;2023-02-28T16:44:41;14.30;;;10.57;;
9689;SDS011;4884;42.614;23.340;2023-02-28T16:47:06;11.63;;;9.60;;
9689;SDS011;4884;42.614;23.340;2023-02-28T16:49:31;11.47;;;8.97;;
9689;SDS011;4884;42.614;23.340;2023-02-28T16:51:57;11.00;;;8.90;;
9689;SDS011;4884;42.614;23.340;2023-02-28T16:54:22;11.37;;;8.03;;
9689;SDS011;4884;42.614;23.340;2023-02-28T16:56:48;13.10;;;7.60;;
9689;SDS011;4884;42.614;23.340;2023-02-28T16:59:15;12.37;;;8.63;;
9689;SDS011;4884;42.614;23.340;2023-02-28T17:01:43;11.53;;;7.27;;
9689;SDS011;4884;42.614;23.340;2023-02-28T17:04:10;11.70;;;8.13;;
9689;SDS011;4884;42.614;23.340;2023-02-28T17:06:36;14.47;;;7.63;;
9689;SDS011;4884;42.614;23.340;2023-02-28T17:09:02;9.43;;;7.27;;
9689;SDS011;4884;42.614;23.340;2023-02-28T17:11:27;10.53;;;7.17;;
9689;SDS011;4884;42.614;23.340;2023-02-28T17:13:53;12.93;;;7.10;;
9689;SDS011;4884;42.614;23.340;2023-02-28T17:16:31;9.80;;;7.63;;
9689;SDS011;4884;42.614;23.340;2023-02-28T17:18:58;10.13;;;7.33;;